Terminal Aerodrome Forecast
Issued by NWS

Home | Current Version | Previous Version | Text Only | Print | Product List | Glossary Off
Versions: 1 2 3 4 5 6 7 8 9 10 11 12 13 14 15 16

930
FTUS42 KMHX 241725
TAFOAJ
TAF
KOAJ 241725Z 2418/2518 02006KT P6SM FEW050
     FM250900 05004KT P6SM SCT007 BKN015
     FM251600 04009KT P6SM SCT025 BKN040
      AMD LTD TO CLD VIS AND WIND=

USA.gov is the U.S. government's official web portal to all federal, state and local government web resources and services.